首页
METAR-TAF:

METAR-TAF

机场 :

黃刀鎮, 西北特區, 加拿大

纬度: 62-28N, 经度: 114-27W, 海拔: 205米

当前天气观测

该预报发布于1小时和5分钟前的23:00 UTC
风速10节,风向东转东南
温度 -12°C
湿度 92%
气压 1002 hPa
能見度: 24.1公里
多云层高于1200英尺
阴天层高于12000英尺

METAR: CYZF 172300Z 11010KT 15SM BKN012 OVC120 M12/M13 A2959 RMK SC6AC2 SLP043

时间: 17:05 (00:05 UTC)

预报

该预报发布于27分钟前的23:38 UTC
预报有效从18日的 00点(UTC)到 18日的 24点(UTC)
风速10节,风向东转东南
能見度: 10公里
散云层高于1000英尺
多云层高于10000英尺
短暂存在
从 18日的 00点(UTC)到 18日的 02点(UTC)
能見度: 10公里
散云层高于500英尺
多云层高于1000英尺
阴天层高于10000英尺
小雪
从 18日的 0200点(UTC)
风速10节,风向东转东南
能見度: 10公里
散云层高于500英尺
阴天层高于1000英尺
小雪
短暂存在
从 18日的 02点(UTC)到 18日的 06点(UTC)
能見度: 4.8公里
阴天层高于500英尺
小雪, 轻雾
从 18日的 0600点(UTC)
风速10节,风向东转东南,有时为20节阵风
能見度: 10公里
散云层高于500英尺
多云层高于1000英尺
短暂存在
从 18日的 06点(UTC)到 18日的 18点(UTC)
能見度: 10公里
多云层高于500英尺
阴天层高于1000英尺
小雪
从 18日的 1800点(UTC)
风速12节,风向,有时为22节阵风
能見度: 10公里
多云层高于1000英尺
多云层高于15000英尺
小雪

TAF: CYZF 172338Z 1800/1824 11010KT P6SM SCT010 BKN100 TEMPO 1800/1802 P6SM -SN SCT005 BKN010 OVC100 FM180200 11010KT P6SM -SN SCT005 OVC010 TEMPO 1802/1806 3SM -SN BR OVC005 FM180600 11010G20KT P6SM SCT005 BKN010 TEMPO 1806/1818 P6SM -SN BKN005 OVC010 FM181800 08012G22KT P6SM -SN BKN010 BKN150 RMK NXT FCST BY 180600Z

超过4000个机场的气象观测和天气预报(METAR&TAF报告)。

可查询的气象台以黄色和红色小点在地图上表示。

将鼠标移到小点上方,可查看气象台名称。

然后点击查看天气观测和预报。

如需切换地图:点击带黑十字的绿色按钮放大地图;点击带横线的绿色按钮缩小地图;或者点击绿色箭头查看邻近地区的地图。


METAR-TAF: